Time;durP1;ratioP1;P1;durP2;ratioP2;P2;SDS_P1;SDS_P2;PMS_P1;PMS_P2;Temp;Humidity;BMP_temperature;BMP_pressure;BME280_temperature;BME280_humidity;BME280_pressure;Samples;Min_cycle;Max_cycle;Signal;HPM_P1;HPM_P2
2022/10/10 00:02:17;;;;;;;5.20;2.90;;;;;;;4.18;85.20;97659.77;105562;1304;22820;-83
2022/10/10 00:04:51;;;;;;;3.90;2.40;;;;;;;4.18;85.46;97657.98;105601;1292;22509;-83
2022/10/10 00:07:23;;;;;;;4.30;2.50;;;;;;;4.15;84.90;97646.88;105573;1303;24254;-83
2022/10/10 00:09:54;;;;;;;3.60;2.60;;;;;;;4.01;84.76;97644.09;105546;1303;22636;-83
2022/10/10 00:12:25;;;;;;;3.20;2.10;;;;;;;4.04;85.30;97644.51;105557;1289;22585;-83
2022/10/10 00:14:59;;;;;;;3.10;2.30;;;;;;;3.95;85.03;97642.71;105569;1294;22492;-83
2022/10/10 00:17:30;;;;;;;3.50;2.50;;;;;;;3.77;85.24;97639.58;105557;1294;22538;-83
2022/10/10 00:20:01;;;;;;;5.40;2.40;;;;;;;3.62;85.68;97635.27;105522;1303;26015;-83
2022/10/10 00:22:32;;;;;;;4.70;3.50;;;;;;;3.61;86.93;97632.79;105578;1295;24339;-83
2022/10/10 00:25:03;;;;;;;4.60;3.10;;;;;;;3.79;88.17;97626.13;105590;1303;22563;-83
2022/10/10 00:27:37;;;;;;;3.80;2.60;;;;;;;4.04;88.83;97627.09;105558;1303;22462;-83
2022/10/10 00:30:11;;;;;;;2.30;2.10;;;;;;;4.11;87.85;97631.77;105555;1303;22415;-83
2022/10/10 00:32:42;;;;;;;5.50;2.20;;;;;;;3.91;86.63;97631.27;105596;1294;22478;-83
2022/10/10 00:35:14;;;;;;;5.30;2.40;;;;;;;3.82;86.36;97630.19;105545;1304;25949;-83
2022/10/10 00:37:47;;;;;;;4.00;2.30;;;;;;;3.79;86.45;97623.30;105558;1309;24258;-83
2022/10/10 00:40:18;;;;;;;6.00;2.40;;;;;;;3.64;86.23;97625.80;105507;1303;22473;-83
2022/10/10 00:42:49;;;;;;;4.70;2.20;;;;;;;3.46;86.60;97623.13;105562;1302;22978;-83
2022/10/10 00:45:32;;;;;;;4.60;2.60;;;;;;;3.40;87.23;97619.84;105544;1301;22420;-83
2022/10/10 00:48:09;;;;;;;5.20;2.30;;;;;;;3.52;87.92;97612.86;105621;1287;24943;-83
2022/10/10 00:50:47;;;;;;;3.80;2.50;;;;;;;3.57;87.82;97607.91;105517;1308;24533;-83
2022/10/10 00:53:21;;;;;;;5.30;2.50;;;;;;;3.56;87.92;97602.93;105611;1293;22559;-83
2022/10/10 00:55:53;;;;;;;5.00;2.60;;;;;;;3.51;88.07;97604.15;105592;1294;22923;-83
2022/10/10 00:58:25;;;;;;;5.00;2.70;;;;;;;3.55;88.16;97600.98;105522;1302;22456;-82
2022/10/10 01:00:56;;;;;;;4.10;2.30;;;;;;;3.61;87.98;97604.46;105548;1302;22527;-83
2022/10/10 01:03:27;;;;;;;4.40;2.70;;;;;;;3.58;87.55;97601.70;105557;1294;22674;-83
2022/10/10 01:05:59;;;;;;;4.40;2.70;;;;;;;3.37;87.33;97602.95;105577;1280;22584;-83
2022/10/10 01:08:30;;;;;;;3.50;2.20;;;;;;;3.22;87.68;97598.73;105508;1293;23764;-84
2022/10/10 01:11:17;;;;;;;3.30;2.30;;;;;;;3.19;88.26;97602.94;105551;1304;22602;-83
2022/10/10 01:14:01;;;;;;;4.50;2.70;;;;;;;3.23;88.42;97602.80;105527;1285;22503;-83
2022/10/10 01:16:43;;;;;;;5.40;2.90;;;;;;;3.25;88.70;97600.48;105572;1301;22602;-83
2022/10/10 01:19:36;;;;;;;3.70;2.80;;;;;;;3.35;89.31;97600.39;105509;1304;25905;-83
2022/10/10 01:22:22;;;;;;;5.20;2.90;;;;;;;3.55;89.96;97595.98;105566;1295;24375;-83
2022/10/10 01:25:09;;;;;;;4.80;3.10;;;;;;;3.73;89.97;97593.30;105588;1293;22425;-83
2022/10/10 01:27:47;;;;;;;4.90;2.30;;;;;;;3.81;89.59;97592.27;105567;1304;22468;-83
2022/10/10 01:30:21;;;;;;;2.90;2.10;;;;;;;3.67;88.75;97591.57;105501;1303;22535;-83
2022/10/10 01:32:57;;;;;;;3.20;2.10;;;;;;;3.49;88.75;97593.67;105571;1304;22833;-83
2022/10/10 01:35:45;;;;;;;4.00;2.40;;;;;;;3.41;89.12;97592.59;105528;1294;22511;-83
2022/10/10 01:38:29;;;;;;;4.80;2.90;;;;;;;3.47;89.42;97590.83;105543;1296;25213;-83
2022/10/10 01:41:07;;;;;;;6.80;3.20;;;;;;;3.50;89.30;97589.42;105563;1294;22473;-83
2022/10/10 01:43:39;;;;;;;5.40;2.90;;;;;;;3.58;89.44;97584.55;105569;1293;22496;-83
2022/10/10 01:46:16;;;;;;;8.40;3.70;;;;;;;3.65;89.63;97585.45;105576;1294;22502;-82
2022/10/10 01:48:50;;;;;;;3.80;2.70;;;;;;;3.66;89.40;97578.10;105538;1304;25261;-82
2022/10/10 01:51:37;;;;;;;6.20;3.10;;;;;;;3.63;89.22;97580.93;105586;1285;25460;-83
2022/10/10 01:54:23;;;;;;;6.00;2.80;;;;;;;3.50;89.10;97579.99;105551;1297;22441;-82
2022/10/10 01:57:05;;;;;;;4.30;2.70;;;;;;;3.44;89.20;97576.20;105541;1292;22462;-83
2022/10/10 01:59:47;;;;;;;5.80;3.50;;;;;;;3.47;89.45;97574.48;105541;1304;22486;-83
2022/10/10 02:02:28;;;;;;;6.20;3.50;;;;;;;3.55;89.54;97573.45;105582;1296;22539;-82
2022/10/10 02:05:05;;;;;;;4.60;3.20;;;;;;;3.60;89.52;97572.56;105568;1292;22674;-83
2022/10/10 02:07:41;;;;;;;5.90;3.30;;;;;;;3.67;89.65;97568.55;105593;1297;22447;-83
2022/10/10 02:10:16;;;;;;;5.90;3.40;;;;;;;3.74;89.85;97565.91;105512;1288;22492;-83
2022/10/10 02:12:48;;;;;;;3.90;2.80;;;;;;;3.79;89.72;97559.70;105548;1303;22552;-83
2022/10/10 02:15:22;;;;;;;6.40;3.00;;;;;;;3.77;89.49;97558.50;105550;1295;22525;-83
2022/10/10 02:17:55;;;;;;;6.90;3.30;;;;;;;3.76;89.67;97558.98;105566;1288;22755;-82
2022/10/10 02:20:29;;;;;;;5.10;3.30;;;;;;;3.84;90.21;97559.73;105535;1295;22476;-82
2022/10/10 02:23:01;;;;;;;6.60;3.70;;;;;;;3.91;90.15;97560.08;105550;1296;22420;-82
2022/10/10 02:25:37;;;;;;;7.10;3.60;;;;;;;3.92;89.95;97557.44;105570;1285;22521;-83
2022/10/10 02:28:13;;;;;;;6.10;4.00;;;;;;;3.91;89.96;97554.54;105553;1292;22564;-82
2022/10/10 02:30:49;;;;;;;8.10;4.00;;;;;;;3.92;90.04;97553.89;105559;1296;22637;-82
2022/10/10 02:33:26;;;;;;;6.10;3.90;;;;;;;3.92;90.12;97555.46;105553;1289;22596;-82
2022/10/10 02:36:01;;;;;;;8.10;4.00;;;;;;;3.90;90.13;97553.46;105596;1303;25212;-83
2022/10/10 02:38:33;;;;;;;6.80;4.40;;;;;;;3.86;90.25;97551.23;105550;1295;22456;-82
2022/10/10 02:41:06;;;;;;;6.30;4.20;;;;;;;3.79;90.15;97552.77;105576;1303;22493;-82
2022/10/10 02:43:39;;;;;;;7.30;3.90;;;;;;;3.75;90.07;97551.09;105610;1303;24317;-83
2022/10/10 02:46:14;;;;;;;6.30;4.40;;;;;;;3.71;90.15;97549.23;105583;1303;24228;-83
2022/10/10 02:48:45;;;;;;;6.00;4.10;;;;;;;3.69;90.12;97547.52;105485;1288;22451;-83
2022/10/10 02:51:17;;;;;;;5.10;3.50;;;;;;;3.66;90.05;97548.50;105549;1297;22549;-83
2022/10/10 02:53:48;;;;;;;4.10;3.30;;;;;;;3.65;90.02;97547.31;105587;1296;24249;-83
2022/10/10 02:56:19;;;;;;;6.20;3.80;;;;;;;3.65;89.98;97548.11;105581;1293;22447;-83
2022/10/10 02:58:50;;;;;;;4.80;3.70;;;;;;;3.65;89.86;97550.39;105517;1303;22628;-82
2022/10/10 03:01:21;;;;;;;5.30;3.40;;;;;;;3.63;89.57;97550.89;105542;1287;22484;-83
2022/10/10 03:03:53;;;;;;;5.90;3.70;;;;;;;3.58;89.54;97555.92;105560;1295;23768;-82
2022/10/10 03:06:24;;;;;;;10.70;4.50;;;;;;;3.59;89.85;97551.95;105561;1303;22560;-83
2022/10/10 03:08:55;;;;;;;5.60;3.90;;;;;;;3.61;90.12;97552.39;105537;1303;24203;-82
2022/10/10 03:11:26;;;;;;;5.70;4.10;;;;;;;3.63;90.02;97548.10;105594;1303;22626;-82
2022/10/10 03:13:57;;;;;;;6.40;4.00;;;;;;;3.66;90.09;97545.40;105563;1295;22955;-82
2022/10/10 03:16:31;;;;;;;5.90;4.00;;;;;;;3.70;89.97;97542.46;105572;1294;23785;-83
2022/10/10 03:19:03;;;;;;;5.60;3.70;;;;;;;3.72;89.84;97542.96;105510;1290;22657;-83
2022/10/10 03:21:34;;;;;;;4.90;3.40;;;;;;;3.73;89.69;97542.84;105588;1303;22463;-83
2022/10/10 03:24:05;;;;;;;6.00;3.70;;;;;;;3.70;89.61;97541.70;105594;1294;22425;-83
2022/10/10 03:26:36;;;;;;;5.90;3.80;;;;;;;3.66;89.48;97537.55;105603;1281;25381;-83
2022/10/10 03:29:07;;;;;;;6.10;4.10;;;;;;;3.66;89.65;97532.32;105532;1303;22574;-82
2022/10/10 03:31:39;;;;;;;7.20;3.80;;;;;;;3.70;89.50;97529.63;105548;1299;24267;-83
2022/10/10 03:34:10;;;;;;;8.40;4.20;;;;;;;3.71;89.43;97525.36;105604;1294;24260;-83
2022/10/10 03:36:41;;;;;;;6.90;3.90;;;;;;;3.67;89.15;97527.59;105579;1294;22479;-83
2022/10/10 03:39:12;;;;;;;5.70;3.60;;;;;;;3.66;89.15;97519.86;105513;1282;24250;-82
2022/10/10 03:41:44;;;;;;;4.90;3.00;;;;;;;3.65;89.16;97515.98;105566;1295;24376;-83
2022/10/10 03:44:16;;;;;;;5.80;3.70;;;;;;;3.67;89.37;97519.61;105612;1285;23407;-83
2022/10/10 03:46:47;;;;;;;5.00;3.80;;;;;;;3.67;89.43;97515.70;105603;1303;25391;-83
2022/10/10 03:49:18;;;;;;;7.90;3.90;;;;;;;3.66;89.21;97516.94;105533;1296;22438;-82
2022/10/10 03:51:49;;;;;;;6.20;3.90;;;;;;;3.67;89.28;97514.20;105560;1291;22712;-83
2022/10/10 03:54:20;;;;;;;7.70;4.60;;;;;;;3.68;89.20;97512.23;105572;1291;22529;-82
2022/10/10 03:56:51;;;;;;;6.70;4.30;;;;;;;3.69;89.10;97512.86;105575;1303;22578;-83
2022/10/10 03:59:24;;;;;;;6.60;4.20;;;;;;;3.69;89.19;97513.59;105519;1303;23953;-83
2022/10/10 04:01:55;;;;;;;7.50;4.10;;;;;;;3.68;89.08;97511.42;105565;1295;23164;-82
2022/10/10 04:04:26;;;;;;;6.90;3.90;;;;;;;3.67;88.91;97507.42;105563;1297;22430;-82
2022/10/10 04:06:57;;;;;;;7.60;3.80;;;;;;;3.67;89.03;97507.95;105548;1283;22478;-83
2022/10/10 04:09:28;;;;;;;5.30;3.70;;;;;;;3.66;89.01;97506.06;105519;1298;22486;-83
2022/10/10 04:12:00;;;;;;;5.60;3.70;;;;;;;3.64;89.00;97503.45;105558;1294;22508;-83
2022/10/10 04:14:31;;;;;;;8.40;4.70;;;;;;;3.62;89.29;97505.06;105558;1303;22470;-82
2022/10/10 04:17:02;;;;;;;9.90;5.40;;;;;;;3.63;89.50;97505.30;105555;1303;23841;-83
2022/10/10 04:19:33;;;;;;;6.90;4.00;;;;;;;3.62;89.50;97505.70;105505;1281;22493;-83
2022/10/10 04:22:05;;;;;;;6.40;4.10;;;;;;;3.62;89.65;97507.16;105554;1288;22545;-83
2022/10/10 04:24:36;;;;;;;9.70;4.40;;;;;;;3.60;89.64;97507.22;105569;1303;22458;-83
2022/10/10 04:27:09;;;;;;;6.90;4.40;;;;;;;3.61;89.70;97504.88;105553;1297;24349;-83
2022/10/10 04:29:40;;;;;;;6.90;4.80;;;;;;;3.61;89.74;97503.83;105483;1286;22483;-82
2022/10/10 04:32:11;;;;;;;9.00;5.00;;;;;;;3.60;89.81;97498.19;105605;1302;25380;-83
2022/10/10 04:34:43;;;;;;;6.30;4.00;;;;;;;3.61;89.86;97494.79;105548;1303;22519;-83
2022/10/10 04:37:14;;;;;;;7.00;4.30;;;;;;;3.65;89.88;97493.67;105538;1303;22457;-82
2022/10/10 04:39:48;;;;;;;6.70;4.00;;;;;;;3.68;89.69;97490.65;105505;1294;22479;-83
2022/10/10 04:42:28;;;;;;;6.40;4.10;;;;;;;3.70;89.73;97493.86;105568;1295;22699;-83
2022/10/10 04:44:59;;;;;;;6.60;4.00;;;;;;;3.71;89.66;97489.69;105540;1281;22516;-83
2022/10/10 04:47:31;;;;;;;11.00;4.10;;;;;;;3.72;89.58;97489.52;105540;1291;22541;-82
2022/10/10 04:50:02;;;;;;;7.50;4.50;;;;;;;3.74;89.49;97489.38;105481;1303;22500;-83
2022/10/10 04:52:34;;;;;;;5.80;3.40;;;;;;;3.78;89.28;97490.06;105565;1303;22478;-83
2022/10/10 04:55:05;;;;;;;5.90;3.70;;;;;;;3.80;89.08;97490.30;105566;1303;22481;-83
2022/10/10 04:57:37;;;;;;;5.60;4.30;;;;;;;3.81;89.05;97485.10;105591;1288;24253;-83
2022/10/10 05:00:14;;;;;;;5.60;3.40;;;;;;;3.78;89.05;97486.52;105501;1295;22498;-82
2022/10/10 05:02:45;;;;;;;8.90;4.10;;;;;;;3.75;89.24;97483.67;105548;1301;23833;-83
2022/10/10 05:05:17;;;;;;;5.50;4.10;;;;;;;3.71;89.45;97483.47;105543;1281;22487;-83
2022/10/10 05:07:49;;;;;;;6.50;3.90;;;;;;;3.72;89.42;97479.67;105548;1303;24410;-83
2022/10/10 05:10:20;;;;;;;5.40;3.60;;;;;;;3.95;89.56;97482.92;105502;1294;24365;-83
2022/10/10 05:12:53;;;;;;;6.10;3.40;;;;;;;4.41;89.29;97481.50;105550;1295;22471;-83
2022/10/10 05:15:25;;;;;;;5.20;3.70;;;;;;;4.97;88.86;97480.16;105576;1303;22552;-83
2022/10/10 05:17:57;;;;;;;4.70;3.40;;;;;;;5.54;88.11;97474.26;105531;1294;22483;-83
2022/10/10 05:20:28;;;;;;;4.70;3.40;;;;;;;6.12;87.14;97479.38;105510;1300;22481;-83
2022/10/10 05:22:59;;;;;;;5.50;3.20;;;;;;;6.67;85.66;97475.65;105560;1288;23625;-84
2022/10/10 05:25:32;;;;;;;6.70;3.60;;;;;;;7.09;84.35;97473.38;105551;1303;25216;-83
2022/10/10 05:28:03;;;;;;;5.00;3.60;;;;;;;7.69;83.78;97474.70;105525;1303;22828;-83
2022/10/10 05:30:34;;;;;;;5.00;3.50;;;;;;;8.06;81.56;97482.65;105489;1303;24462;-83
2022/10/10 05:33:06;;;;;;;6.60;4.10;;;;;;;8.46;80.43;97480.58;105558;1302;22489;-83
2022/10/10 05:35:37;;;;;;;5.40;3.50;;;;;;;8.91;80.35;97481.59;105554;1278;22681;-84
2022/10/10 05:38:11;;;;;;;6.40;3.60;;;;;;;9.57;79.55;97478.67;105558;1284;24222;-84
2022/10/10 05:40:43;;;;;;;4.20;3.20;;;;;;;10.03;77.66;97477.48;105505;1297;22522;-84
2022/10/10 05:43:14;;;;;;;4.20;3.30;;;;;;;10.36;76.06;97480.90;105549;1281;22622;-84
2022/10/10 05:45:46;;;;;;;5.10;3.30;;;;;;;10.92;76.02;97478.29;105560;1301;23782;-84
2022/10/10 05:48:17;;;;;;;4.60;2.90;;;;;;;11.59;74.30;97475.05;105545;1298;25475;-84
2022/10/10 05:50:51;;;;;;;5.10;3.70;;;;;;;11.57;69.57;97479.24;105484;1294;22618;-84
2022/10/10 05:53:24;;;;;;;3.50;2.90;;;;;;;11.06;65.54;97485.09;105550;1297;22600;-84
2022/10/10 05:55:55;;;;;;;4.60;3.10;;;;;;;10.41;64.16;97491.68;105560;1303;22591;-84
2022/10/10 05:58:27;;;;;;;6.10;3.20;;;;;;;10.32;66.75;97488.97;105504;1284;22487;-83
2022/10/10 06:01:05;;;;;;;6.50;3.30;;;;;;;10.91;67.40;97487.41;105543;1289;23810;-83
2022/10/10 06:03:37;;;;;;;5.60;3.40;;;;;;;11.78;67.87;97482.77;105560;1302;24476;-83
2022/10/10 06:06:08;;;;;;;4.10;3.20;;;;;;;12.41;65.65;97484.46;105552;1295;22487;-83
2022/10/10 06:08:39;;;;;;;4.10;2.80;;;;;;;12.84;64.63;97481.21;105491;1289;23859;-84
2022/10/10 06:11:14;;;;;;;4.80;3.20;;;;;;;13.34;64.81;97477.05;105563;1295;22608;-84
2022/10/10 06:13:48;;;;;;;5.50;3.50;;;;;;;14.44;64.88;97473.92;105544;1288;22414;-83
2022/10/10 06:16:19;;;;;;;5.00;3.10;;;;;;;15.28;61.26;97475.36;105560;1303;22501;-84
2022/10/10 06:18:51;;;;;;;4.10;3.10;;;;;;;15.64;60.14;97475.16;105497;1294;22458;-83
2022/10/10 06:21:25;;;;;;;4.10;3.10;;;;;;;16.04;59.63;97470.45;105548;1288;23764;-83
2022/10/10 06:23:56;;;;;;;4.60;3.30;;;;;;;16.35;57.56;97471.00;105545;1300;22475;-83
2022/10/10 06:26:27;;;;;;;4.50;3.00;;;;;;;16.46;56.98;97468.04;105553;1296;22415;-84
2022/10/10 06:28:58;;;;;;;4.20;2.80;;;;;;;17.11;57.41;97467.48;105517;1288;22544;-84
2022/10/10 06:31:30;;;;;;;6.00;3.10;;;;;;;17.68;55.55;97468.70;105555;1285;22823;-84
2022/10/10 06:34:03;;;;;;;3.20;2.40;;;;;;;17.89;54.46;97464.20;105554;1299;22468;-84
2022/10/10 06:36:34;;;;;;;6.20;3.20;;;;;;;17.73;51.86;97466.12;105580;1303;22536;-84
2022/10/10 06:39:06;;;;;;;4.70;2.70;;;;;;;17.69;51.66;97466.09;105507;1282;22463;-84
2022/10/10 06:41:37;;;;;;;4.70;2.70;;;;;;;17.54;51.20;97461.42;105566;1287;22531;-85
2022/10/10 06:44:08;;;;;;;4.50;2.50;;;;;;;17.59;50.95;97464.80;105542;1303;22538;-84
2022/10/10 06:46:39;;;;;;;3.30;2.60;;;;;;;17.69;50.36;97464.27;105524;1295;23669;-85
2022/10/10 06:49:13;;;;;;;3.90;2.50;;;;;;;17.96;50.22;97466.39;105491;1281;28567;-84
2022/10/10 06:51:44;;;;;;;4.80;2.60;;;;;;;18.29;49.49;97465.33;105568;1295;22627;-84
2022/10/10 06:54:15;;;;;;;5.40;2.90;;;;;;;18.57;48.49;97461.66;105568;1288;22494;-84
2022/10/10 06:56:46;;;;;;;2.70;2.10;;;;;;;18.09;47.17;97460.34;105541;1281;22659;-84
2022/10/10 06:59:17;;;;;;;4.00;2.90;;;;;;;17.71;46.92;97462.63;105511;1295;22525;-83
2022/10/10 07:01:51;;;;;;;4.80;2.60;;;;;;;17.68;47.31;97462.89;105547;1303;22496;-84
2022/10/10 07:04:22;;;;;;;3.70;2.80;;;;;;;17.81;46.99;97463.41;105556;1281;22478;-83
2022/10/10 07:06:53;;;;;;;4.40;2.50;;;;;;;17.87;45.88;97461.56;105564;1295;22503;-84
2022/10/10 07:09:24;;;;;;;5.10;2.90;;;;;;;17.54;46.43;97463.23;105512;1282;22458;-83
2022/10/10 07:11:55;;;;;;;3.10;2.30;;;;;;;17.97;46.64;97461.69;105569;1303;23227;-83
2022/10/10 07:14:27;;;;;;;4.90;2.80;;;;;;;18.65;45.32;97462.00;105536;1295;24256;-84
2022/10/10 07:16:58;;;;;;;4.60;2.90;;;;;;;18.82;45.28;97458.91;105535;1303;25373;-84
2022/10/10 07:19:29;;;;;;;4.80;3.10;;;;;;;19.53;44.95;97457.94;105509;1288;22481;-83
2022/10/10 07:22:00;;;;;;;3.00;2.40;;;;;;;19.59;43.73;97460.09;105553;1301;25225;-83
2022/10/10 07:24:31;;;;;;;3.50;2.50;;;;;;;19.75;43.59;97463.24;105558;1303;22597;-84
2022/10/10 07:27:03;;;;;;;3.10;2.40;;;;;;;20.03;42.97;97461.59;105534;1297;22674;-84
2022/10/10 07:29:34;;;;;;;4.00;2.50;;;;;;;20.32;43.21;97456.99;105558;1287;22461;-83
2022/10/10 07:32:05;;;;;;;3.50;2.90;;;;;;;20.76;41.54;97458.98;105586;1283;22495;-84
2022/10/10 07:34:37;;;;;;;3.00;2.30;;;;;;;21.06;41.60;97460.20;105567;1281;22508;-84
2022/10/10 07:37:08;;;;;;;3.20;2.40;;;;;;;21.41;40.64;97462.13;105588;1294;23678;-84
2022/10/10 07:39:39;;;;;;;2.70;2.50;;;;;;;21.23;39.74;97460.50;105519;1282;25225;-84
2022/10/10 07:42:10;;;;;;;4.00;2.90;;;;;;;21.27;40.02;97459.04;105537;1288;24222;-84
2022/10/10 07:44:41;;;;;;;4.00;2.90;;;;;;;21.49;39.82;97459.56;105549;1303;22953;-84
2022/10/10 07:47:14;;;;;;;3.20;2.90;;;;;;;21.76;39.12;97457.11;105551;1298;22472;-84
2022/10/10 07:49:46;;;;;;;3.80;3.30;;;;;;;22.09;39.38;97455.52;105538;1302;25388;-84
2022/10/10 07:52:17;;;;;;;4.00;3.00;;;;;;;22.09;37.80;97453.29;105551;1303;25365;-84
2022/10/10 07:54:48;;;;;;;3.10;2.80;;;;;;;22.37;39.14;97455.73;105539;1281;22413;-84
2022/10/10 07:57:19;;;;;;;3.20;2.90;;;;;;;22.86;37.81;97446.73;105531;1302;22557;-84
2022/10/10 07:59:51;;;;;;;4.20;2.10;;;;;;;22.91;37.93;97448.51;105531;1303;22482;-84
2022/10/10 08:02:22;;;;;;;4.30;2.20;;;;;;;23.33;37.43;97449.60;105579;1303;25382;-84
2022/10/10 08:04:53;;;;;;;3.90;1.70;;;;;;;22.53;36.05;97451.24;105570;1291;23246;-84
2022/10/10 08:07:24;;;;;;;3.00;2.10;;;;;;;21.35;36.36;97451.98;105559;1281;23356;-84
2022/10/10 08:09:55;;;;;;;3.30;2.00;;;;;;;20.99;37.60;97448.27;105507;1299;22958;-84
2022/10/10 08:12:26;;;;;;;3.30;1.70;;;;;;;21.32;38.86;97445.28;105548;1297;24422;-84
2022/10/10 08:14:58;;;;;;;2.20;1.60;;;;;;;22.45;39.07;97440.48;105569;1303;22742;-84
2022/10/10 08:17:29;;;;;;;3.40;1.50;;;;;;;22.28;36.72;97440.89;105547;1303;22657;-84
2022/10/10 08:20:00;;;;;;;3.60;1.90;;;;;;;21.64;37.25;97440.75;105490;1298;24855;-84
2022/10/10 08:22:31;;;;;;;3.20;1.70;;;;;;;21.32;37.86;97437.20;105543;1295;25270;-85
2022/10/10 08:25:03;;;;;;;2.30;1.50;;;;;;;21.44;38.29;97437.41;105534;1291;24031;-85
2022/10/10 08:27:34;;;;;;;1.80;1.60;;;;;;;21.17;38.18;97437.74;105606;1301;23211;-84
2022/10/10 08:42:58;;;;;;;2.60;1.50;;;;;;;19.96;38.50;97422.30;102272;1327;557468;-78
2022/10/10 08:45:33;;;;;;;3.20;1.70;;;;;;;19.04;39.12;97413.84;104192;1314;201659;-78
2022/10/10 08:48:09;;;;;;;3.40;1.30;;;;;;;17.65;40.05;97411.99;104518;1296;22516;-77
2022/10/10 08:50:44;;;;;;;2.70;1.30;;;;;;;16.94;40.62;97412.63;104507;1309;22477;-77
2022/10/10 08:53:20;;;;;;;2.30;1.60;;;;;;;16.73;41.86;97417.12;104507;1307;27663;-77
2022/10/10 08:55:53;;;;;;;5.00;1.70;;;;;;;16.61;42.41;97417.80;104602;1307;25389;-78
2022/10/10 08:58:29;;;;;;;3.40;1.90;;;;;;;16.52;42.42;97417.28;104567;1313;25659;-77
2022/10/10 09:01:10;;;;;;;1.80;1.40;;;;;;;16.28;42.72;97414.84;104638;1299;22467;-78
2022/10/10 09:03:46;;;;;;;3.00;1.70;;;;;;;16.04;42.90;97408.03;105189;1295;22466;-77
2022/10/10 09:06:37;;;;;;;3.20;1.70;;;;;;;15.80;43.77;97405.23;105163;1290;22474;-77
2022/10/10 09:09:18;;;;;;;2.90;1.70;;;;;;;15.87;44.14;97405.42;105214;1290;22502;-77
2022/10/10 09:12:04;;;;;;;3.90;1.30;;;;;;;15.93;44.05;97399.45;105204;1302;24288;-77
2022/10/10 09:14:44;;;;;;;1.30;1.10;;;;;;;15.74;44.21;97400.11;105145;1303;22483;-77
2022/10/10 09:17:26;;;;;;;3.30;1.60;;;;;;;15.69;44.51;97398.59;105184;1305;24448;-78
2022/10/10 09:20:06;;;;;;;3.10;1.50;;;;;;;15.58;44.20;97393.55;105190;1304;22482;-78
2022/10/10 09:22:49;;;;;;;2.60;1.40;;;;;;;15.33;44.85;97389.58;105101;1284;22530;-77
2022/10/10 09:25:27;;;;;;;1.40;1.10;;;;;;;15.45;44.95;97385.85;105199;1288;22537;-77
2022/10/10 09:28:06;;;;;;;1.90;1.10;;;;;;;15.55;44.32;97384.56;105132;1291;23136;-77
2022/10/10 09:30:44;;;;;;;2.20;1.30;;;;;;;15.57;44.38;97378.17;105190;1288;24475;-77
2022/10/10 09:33:26;;;;;;;2.40;1.40;;;;;;;15.74;44.72;97378.30;105102;1288;22478;-78
2022/10/10 09:36:01;;;;;;;2.10;1.50;;;;;;;15.88;44.20;97378.22;105157;1290;22478;-78
2022/10/10 09:38:38;;;;;;;1.60;1.40;;;;;;;15.81;45.08;97377.88;105179;1305;22534;-77
2022/10/10 09:41:19;;;;;;;2.70;1.80;;;;;;;15.96;45.21;97376.45;105155;1290;22537;-78
2022/10/10 09:43:48;;;;;;;;;;;;;;;15.81;43.82;97370.27;105131;1292;25228;-78
2022/10/10 09:46:19;;;;;;;2.90;1.60;;;;;;;15.55;44.87;97363.55;105160;1284;22605;-78
2022/10/10 09:48:53;;;;;;;2.20;1.50;;;;;;;15.65;46.13;97361.27;105201;1298;23047;-78
2022/10/10 09:51:24;;;;;;;2.80;1.60;;;;;;;15.96;46.38;97359.11;105175;1302;22473;-78
2022/10/10 09:53:56;;;;;;;2.60;1.70;;;;;;;16.05;44.77;97358.20;105129;1302;22506;-77
2022/10/10 09:56:31;;;;;;;2.30;1.60;;;;;;;15.86;44.20;97359.23;105174;1294;24698;-77
2022/10/10 09:59:02;;;;;;;2.50;1.60;;;;;;;15.64;45.22;97352.75;105153;1290;25245;-78
2022/10/10 10:01:35;;;;;;;3.00;1.80;;;;;;;15.83;46.29;97351.85;105191;1294;22491;-78
2022/10/10 10:04:15;;;;;;;2.20;1.70;;;;;;;15.90;45.88;97350.44;105138;1291;22519;-77
2022/10/10 10:06:49;;;;;;;3.20;1.80;;;;;;;15.96;46.01;97352.10;105258;1281;22538;-78
2022/10/10 10:09:22;;;;;;;3.30;1.70;;;;;;;16.18;46.37;97350.54;105244;1302;22465;-77
2022/10/10 10:11:58;;;;;;;2.60;1.60;;;;;;;16.23;45.52;97350.22;105204;1302;22474;-77
2022/10/10 10:14:32;;;;;;;2.90;1.80;;;;;;;16.23;45.71;97350.88;105139;1281;26552;-77
2022/10/10 10:17:10;;;;;;;5.00;1.80;;;;;;;16.27;45.33;97351.05;105188;1302;24922;-77
2022/10/10 10:19:43;;;;;;;3.70;1.90;;;;;;;16.21;44.85;97350.00;105212;1281;22472;-77
2022/10/10 10:22:39;;;;;;;3.50;1.90;;;;;;;16.09;45.19;97345.98;105224;1287;24457;-78
2022/10/10 10:25:32;;;;;;;3.60;1.60;;;;;;;16.27;46.41;97337.67;105182;1283;22485;-78
2022/10/10 10:28:22;;;;;;;3.40;2.00;;;;;;;16.53;45.69;97333.44;105219;1284;22464;-78
2022/10/10 10:30:55;;;;;;;2.80;1.60;;;;;;;16.48;45.12;97326.63;105173;1294;25474;-78
2022/10/10 10:33:44;;;;;;;2.50;1.40;;;;;;;16.53;45.53;97326.48;105148;1302;24330;-78
2022/10/10 10:36:26;;;;;;;2.70;1.60;;;;;;;16.54;45.02;97326.61;105170;1297;22471;-78
2022/10/10 10:39:11;;;;;;;2.80;1.80;;;;;;;16.59;45.21;97321.85;105163;1304;22478;-78
2022/10/10 10:41:48;;;;;;;2.00;1.60;;;;;;;16.55;44.48;97315.82;105167;1305;22468;-78
2022/10/10 10:44:42;;;;;;;2.00;1.70;;;;;;;16.56;45.01;97312.55;105126;1290;22484;-78
2022/10/10 10:47:37;;;;;;;2.10;1.70;;;;;;;16.77;45.79;97315.25;105158;1295;22541;-78
2022/10/10 10:50:25;;;;;;;2.90;1.70;;;;;;;16.93;44.80;97305.48;105176;1288;22482;-78
2022/10/10 10:53:04;;;;;;;3.70;1.80;;;;;;;16.81;44.68;97298.66;105139;1294;22478;-78
2022/10/10 10:55:43;;;;;;;3.00;1.80;;;;;;;16.85;44.77;97296.16;105138;1290;22468;-78
2022/10/10 10:58:35;;;;;;;3.70;2.10;;;;;;;16.94;44.39;97297.11;105117;1283;22509;-78
2022/10/10 11:01:12;;;;;;;3.60;1.60;;;;;;;16.77;43.29;97292.16;105116;1304;22500;-77
2022/10/10 11:03:58;;;;;;;3.10;1.50;;;;;;;16.62;43.72;97291.76;105113;1289;26343;-77
2022/10/10 11:06:58;;;;;;;3.80;1.90;;;;;;;16.60;43.81;97288.36;105213;1303;24371;-78
2022/10/10 11:09:32;;;;;;;2.90;1.60;;;;;;;16.62;44.41;97287.68;105163;1288;22611;-77
2022/10/10 11:12:16;;;;;;;2.40;1.60;;;;;;;16.78;44.69;97281.16;105205;1288;22520;-78
2022/10/10 11:14:56;;;;;;;4.50;1.70;;;;;;;16.91;44.12;97278.46;105156;1297;36452;-78
2022/10/10 11:17:36;;;;;;;3.30;2.20;;;;;;;16.90;43.89;97275.21;105197;1277;22485;-78
2022/10/10 11:20:20;;;;;;;2.70;1.80;;;;;;;16.92;43.71;97273.15;105188;1298;22509;-78
2022/10/10 11:22:56;;;;;;;2.90;1.80;;;;;;;16.97;44.32;97269.02;105143;1294;23719;-78
2022/10/10 11:25:33;;;;;;;2.30;1.50;;;;;;;17.15;43.99;97261.66;105184;1302;22473;-78
2022/10/10 11:28:12;;;;;;;4.30;1.60;;;;;;;17.19;44.21;97259.48;105200;1287;25355;-78
2022/10/10 11:30:49;;;;;;;2.80;1.60;;;;;;;17.38;44.46;97257.84;105180;1302;22944;-78
2022/10/10 11:33:28;;;;;;;3.50;1.70;;;;;;;17.43;43.84;97254.11;105145;1286;23097;-78
2022/10/10 11:36:04;;;;;;;3.80;1.70;;;;;;;17.49;43.96;97248.57;105199;1303;24337;-78
2022/10/10 11:38:43;;;;;;;4.20;1.50;;;;;;;17.56;43.59;97246.30;105185;1297;22473;-78
2022/10/10 11:41:19;;;;;;;3.10;1.90;;;;;;;17.57;43.87;97240.05;105192;1302;22482;-78
2022/10/10 11:43:54;;;;;;;2.60;1.60;;;;;;;17.63;43.43;97237.93;105133;1302;25459;-78
2022/10/10 11:46:33;;;;;;;1.90;1.50;;;;;;;17.64;43.65;97238.31;105166;1287;22462;-78
2022/10/10 11:49:12;;;;;;;2.10;1.60;;;;;;;17.71;43.66;97236.86;105188;1302;22489;-78
2022/10/10 11:52:01;;;;;;;3.80;1.30;;;;;;;17.73;43.65;97229.67;105181;1281;23210;-78
2022/10/10 11:54:41;;;;;;;1.80;1.20;;;;;;;17.84;44.21;97224.09;105137;1302;22516;-78
2022/10/10 11:57:17;;;;;;;3.60;1.60;;;;;;;17.89;42.89;97223.56;105189;1297;22479;-78
2022/10/10 11:59:53;;;;;;;1.60;1.40;;;;;;;17.84;43.36;97219.05;105194;1302;22654;-78
2022/10/10 12:02:31;;;;;;;2.50;1.70;;;;;;;17.97;44.30;97216.20;105114;1290;28469;-78
2022/10/10 12:05:04;;;;;;;2.10;1.90;;;;;;;18.02;42.21;97215.56;105195;1287;22448;-78
2022/10/10 12:07:44;;;;;;;2.20;1.50;;;;;;;17.84;43.18;97211.95;105162;1287;22467;-78
2022/10/10 12:10:24;;;;;;;16.10;11.20;;;;;;;17.91;43.33;97209.31;105192;1302;22875;-78
2022/10/10 12:12:59;;;;;;;3.40;2.40;;;;;;;18.02;43.29;97207.91;105162;1284;23214;-78
2022/10/10 12:15:33;;;;;;;2.50;1.80;;;;;;;18.04;43.26;97209.92;105213;1284;22591;-78
2022/10/10 12:18:05;;;;;;;2.90;1.70;;;;;;;18.10;43.30;97206.39;105172;1303;22462;-77